Terminal Aerodrome Forecast
Issued by NWS Corpus Christi, TX

Home | Current Version | Previous Version | Text Only | Print | Product List | Glossary On
Versions: 1 2 3 4 5 6 7 8 9 10 11 12 13 14 15 16 17 18 19 20 21
000
FTUS44 KCRP 241100
TAFVCT
TAF
KVCT 241131Z 2412/2512 16012KT P6SM BKN015
      TEMPO 2412/2415 SCT015
     FM241600 17013KT P6SM SCT035 BKN120
     FM242200 15009KT P6SM BKN040
     FM250400 VRB03KT 5SM BR FEW008 SCT025
     FM250700 VRB03KT 2SM BR BKN004=

USA.gov is the U.S. government's official web portal to all federal, state and local government web resources and services.